createdAt,value
2018-11-20T00:02:27.839Z,31.15
2018-11-20T00:05:35.234Z,30.92
2018-11-20T00:08:42.593Z,32.53
2018-11-20T00:11:50.093Z,31.82
2018-11-20T00:14:45.653Z,32.85
2018-11-20T00:17:55.666Z,33.28
2018-11-20T00:21:03.047Z,32.50
2018-11-20T00:24:07.976Z,32.45
2018-11-20T00:27:15.232Z,32.75
2018-11-20T00:30:22.619Z,30.37
2018-11-20T00:33:30.051Z,30.77
2018-11-20T00:36:37.546Z,32.40
2018-11-20T00:39:33.903Z,30.52
2018-11-20T00:42:41.613Z,31.77
2018-11-20T00:45:49.003Z,29.92
2018-11-20T00:48:56.196Z,29.72
2018-11-20T00:52:02.933Z,30.50
2018-11-20T00:55:10.515Z,30.52
2018-11-20T00:58:18.107Z,30.82
2018-11-20T01:01:25.591Z,30.55
2018-11-20T01:04:33.226Z,29.10
2018-11-20T01:07:40.626Z,30.50
2018-11-20T01:10:47.960Z,30.72
2018-11-20T01:13:55.278Z,30.35
2018-11-20T01:17:02.714Z,29.87
2018-11-20T01:19:58.362Z,32.80
2018-11-20T01:23:06.002Z,31.10
2018-11-20T01:26:02.968Z,31.95
2018-11-20T01:29:10.512Z,30.10
2018-11-20T01:32:17.975Z,30.72
2018-11-20T01:35:25.629Z,30.05
2018-11-20T01:38:33.045Z,29.65
2018-11-20T01:41:39.524Z,33.45
2018-11-20T01:44:38.405Z,31.97
2018-11-20T01:47:35.167Z,29.72
2018-11-20T01:50:41.969Z,33.95
2018-11-20T01:53:49.883Z,32.03
2018-11-20T01:56:55.343Z,30.65
2018-11-20T02:00:02.809Z,28.95
2018-11-20T02:03:10.314Z,29.85
2018-11-20T02:06:20.402Z,29.12
2018-11-20T02:09:27.922Z,30.88
2018-11-20T02:12:35.344Z,32.03
2018-11-20T02:15:42.691Z,30.65
2018-11-20T02:18:50.026Z,30.77
2018-11-20T02:21:56.779Z,31.57
2018-11-20T02:25:04.182Z,32.17
2018-11-20T02:28:10.869Z,29.70
2018-11-20T02:31:19.533Z,33.73
2018-11-20T02:34:26.285Z,32.08
2018-11-20T02:37:33.007Z,28.45
2018-11-20T02:40:39.749Z,36.42
2018-11-20T02:43:33.005Z,30.72
2018-11-20T02:46:39.833Z,33.73
2018-11-20T02:49:46.464Z,34.55
2018-11-20T02:52:46.434Z,33.00
2018-11-20T02:55:54.057Z,32.42
2018-11-20T02:59:01.335Z,31.70
2018-11-20T03:02:08.694Z,32.65
2018-11-20T03:05:15.270Z,32.95
2018-11-20T03:08:22.688Z,34.92
2018-11-20T03:11:30.300Z,36.10
2018-11-20T03:14:37.767Z,34.13
2018-11-20T03:17:45.241Z,32.08
2018-11-20T03:20:52.672Z,34.53
2018-11-20T03:24:00.112Z,35.05
2018-11-20T03:27:07.446Z,36.65
2018-11-20T03:30:33.642Z,35.20
2018-11-20T03:33:40.889Z,34.53
2018-11-20T03:36:48.243Z,33.48
2018-11-20T03:39:55.680Z,32.35
2018-11-20T03:42:50.063Z,33.90
2018-11-20T03:45:46.720Z,33.15
2018-11-20T03:49:13.039Z,35.70
2018-11-20T03:52:22.024Z,32.00
2018-11-20T03:55:29.401Z,33.58
2018-11-20T03:58:36.866Z,31.87
2018-11-20T04:01:44.341Z,32.17
2018-11-20T04:04:54.179Z,30.90
2018-11-20T04:08:01.675Z,34.00
2018-11-20T04:11:09.108Z,32.10
2018-11-20T04:14:16.432Z,32.42
2018-11-20T04:17:23.677Z,29.95
2018-11-20T04:20:31.259Z,31.10
2018-11-20T04:23:39.136Z,32.75
2018-11-20T04:26:46.451Z,33.05
2018-11-20T04:29:53.008Z,31.90
2018-11-20T04:33:12.379Z,31.05
2018-11-20T04:36:14.614Z,32.17
2018-11-20T04:39:11.931Z,30.50
2018-11-20T04:42:19.211Z,31.85
2018-11-20T04:45:26.672Z,31.90
2018-11-20T04:48:34.213Z,33.65
2018-11-20T04:51:41.590Z,33.73
2018-11-20T04:54:48.889Z,31.52
2018-11-20T04:57:58.160Z,31.05
2018-11-20T05:01:05.565Z,32.00
2018-11-20T05:04:13.128Z,30.92
2018-11-20T05:07:20.769Z,32.10
2018-11-20T05:10:19.422Z,31.55
2018-11-20T05:13:27.034Z,31.82
2018-11-20T05:16:34.509Z,33.58
2018-11-20T05:19:41.956Z,31.80
2018-11-20T05:22:49.294Z,32.67
2018-11-20T05:25:56.793Z,29.48
2018-11-20T05:29:04.207Z,30.77
2018-11-20T05:32:12.025Z,30.02
2018-11-20T05:35:20.091Z,30.57
2018-11-20T05:38:27.448Z,29.10
2018-11-20T05:41:34.827Z,32.03
2018-11-20T05:44:42.345Z,30.27
2018-11-20T05:47:49.472Z,31.17
2018-11-20T05:50:56.990Z,32.13
2018-11-20T05:54:04.390Z,32.60
2018-11-20T05:57:11.147Z,33.85
2018-11-20T06:00:18.444Z,32.50
2018-11-20T06:03:25.660Z,31.15
2018-11-20T06:06:33.180Z,30.62
2018-11-20T06:09:21.610Z,30.30
2018-11-20T06:12:28.913Z,31.52
2018-11-20T06:15:35.605Z,26.93
2018-11-20T06:18:42.366Z,29.87
2018-11-20T06:21:49.722Z,27.60
2018-11-20T06:24:56.949Z,27.32
2018-11-20T06:28:03.703Z,30.52
2018-11-20T06:31:12.660Z,28.23
2018-11-20T06:34:20.132Z,28.32
2018-11-20T06:37:27.613Z,29.85
2018-11-20T06:40:34.902Z,30.62
2018-11-20T06:43:42.244Z,28.30
2018-11-20T06:46:49.816Z,26.97
2018-11-20T06:49:56.525Z,29.02
2018-11-20T06:53:04.603Z,29.25
2018-11-20T06:56:10.113Z,28.20
2018-11-20T06:59:16.817Z,30.40
2018-11-20T07:02:23.449Z,29.00
2018-11-20T07:05:30.074Z,29.90
2018-11-20T07:08:36.820Z,30.60
2018-11-20T07:11:43.707Z,30.30
2018-11-20T07:14:50.594Z,33.63
2018-11-20T07:17:58.108Z,31.75
2018-11-20T07:21:05.673Z,34.27
2018-11-20T07:24:12.532Z,33.28
2018-11-20T07:27:20.026Z,31.52
2018-11-20T07:30:27.714Z,30.37
2018-11-20T07:33:35.376Z,33.15
2018-11-20T07:36:42.820Z,34.20
2018-11-20T07:39:52.942Z,31.70
2018-11-20T07:43:00.268Z,32.23
2018-11-20T07:46:07.649Z,32.93
2018-11-20T07:49:14.361Z,30.95
2018-11-20T07:52:21.912Z,31.85
2018-11-20T07:55:29.223Z,31.52
2018-11-20T07:58:36.553Z,32.13
2018-11-20T08:01:36.125Z,31.85
2018-11-20T08:04:36.246Z,32.40
2018-11-20T08:07:28.665Z,34.53
2018-11-20T08:10:27.563Z,34.67
2018-11-20T08:13:19.178Z,31.80
2018-11-20T08:16:05.517Z,31.12
2018-11-20T08:18:57.676Z,28.05
2018-11-20T08:21:53.566Z,29.95
2018-11-20T08:24:53.226Z,29.95
2018-11-20T08:27:53.740Z,25.50
2018-11-20T08:30:54.953Z,22.10
2018-11-20T08:43:05.931Z,20.77
2018-11-20T08:46:05.473Z,20.37
2018-11-20T08:49:08.830Z,17.70
2018-11-20T08:52:08.450Z,19.13
2018-11-20T08:55:08.357Z,18.23
2018-11-20T08:58:08.315Z,17.87
2018-11-20T09:00:58.867Z,18.00
2018-11-20T09:04:01.021Z,18.10
2018-11-20T09:07:01.318Z,17.60
2018-11-20T09:10:01.322Z,18.40
2018-11-20T09:13:01.445Z,16.57
2018-11-20T09:19:03.806Z,18.20
2018-11-20T09:25:11.827Z,16.40
2018-11-20T09:28:19.264Z,16.07
2018-11-20T09:31:26.770Z,17.40
2018-11-20T09:34:34.317Z,18.77
2018-11-20T09:37:41.677Z,18.40
2018-11-20T09:41:07.854Z,17.60
2018-11-20T09:44:14.730Z,17.13
2018-11-20T09:47:22.036Z,18.40
2018-11-20T09:50:32.162Z,19.03
2018-11-20T09:53:39.544Z,18.57
2018-11-20T09:56:54.194Z,19.20
2018-11-20T10:00:01.814Z,20.30
2018-11-20T10:02:59.864Z,21.10
2018-11-20T10:06:07.276Z,21.27
2018-11-20T10:09:14.768Z,18.90
2018-11-20T10:12:22.261Z,20.83
2018-11-20T10:15:29.540Z,19.50
2018-11-20T10:18:36.934Z,18.13
2018-11-20T10:21:44.421Z,19.13
2018-11-20T10:24:52.013Z,19.70
2018-11-20T10:27:53.182Z,19.07
2018-11-20T10:31:00.650Z,19.50
2018-11-20T10:34:08.172Z,18.40
2018-11-20T10:37:15.501Z,17.10
2018-11-20T10:40:22.976Z,16.20
2018-11-20T10:43:30.365Z,17.57
2018-11-20T10:46:27.332Z,16.90
2018-11-20T10:49:34.690Z,18.10
2018-11-20T10:52:33.040Z,16.73
2018-11-20T10:55:40.274Z,15.30
2018-11-20T10:58:47.538Z,15.80
2018-11-20T11:01:54.789Z,16.70
2018-11-20T11:05:02.183Z,15.50
2018-11-20T11:08:09.504Z,15.00
2018-11-20T11:11:16.913Z,15.07
2018-11-20T11:14:24.385Z,15.97
2018-11-20T11:17:31.815Z,15.77
2018-11-20T11:20:39.517Z,15.70
2018-11-20T11:23:47.334Z,16.53
2018-11-20T11:26:54.716Z,15.13
2018-11-20T11:30:02.183Z,19.33
2018-11-20T11:33:09.768Z,15.97
2018-11-20T11:36:17.146Z,14.80
2018-11-20T11:39:20.812Z,14.80
2018-11-20T11:42:28.526Z,14.60
2018-11-20T11:45:36.127Z,16.00
2018-11-20T11:48:43.469Z,15.60
2018-11-20T11:51:50.816Z,15.33
2018-11-20T11:54:58.264Z,15.00
2018-11-20T11:58:05.606Z,14.90
2018-11-20T12:01:13.095Z,13.70
2018-11-20T12:07:32.012Z,15.37
2018-11-20T12:10:39.477Z,14.67
2018-11-20T12:13:46.910Z,15.10
2018-11-20T12:17:13.154Z,15.00
2018-11-20T12:20:20.526Z,17.83
2018-11-20T12:23:28.176Z,15.50
2018-11-20T12:26:35.635Z,16.50
2018-11-20T12:29:43.124Z,16.57
2018-11-20T12:32:52.628Z,17.10
2018-11-20T12:36:00.155Z,16.47
2018-11-20T12:39:07.715Z,15.90
2018-11-20T12:42:06.696Z,17.90
2018-11-20T12:45:15.615Z,15.97
2018-11-20T12:48:22.391Z,16.73
2018-11-20T12:51:28.729Z,17.20
2018-11-20T12:54:29.806Z,17.00
2018-11-20T12:57:35.037Z,17.73
2018-11-20T13:00:42.679Z,16.43
2018-11-20T13:03:50.061Z,16.93
2018-11-20T13:06:57.448Z,15.50
2018-11-20T13:10:08.387Z,15.87
2018-11-20T13:13:13.290Z,16.63
2018-11-20T13:16:20.732Z,16.27
2018-11-20T13:19:29.392Z,18.10
2018-11-20T13:22:35.661Z,19.00
2018-11-20T13:25:33.490Z,18.00
2018-11-20T13:28:40.822Z,18.50
2018-11-20T13:31:48.162Z,23.70
2018-11-20T13:34:55.580Z,24.17
2018-11-20T13:38:02.948Z,22.00
2018-11-20T13:41:29.415Z,21.87
2018-11-20T13:44:36.898Z,24.30
2018-11-20T13:47:44.372Z,26.03
2018-11-20T13:50:51.926Z,24.30
2018-11-20T13:53:58.578Z,23.63
2018-11-20T13:57:06.180Z,24.70
2018-11-20T14:00:14.343Z,22.53
2018-11-20T14:03:12.183Z,22.77
2018-11-20T14:06:19.527Z,22.87
2018-11-20T14:09:28.060Z,25.47
2018-11-20T14:12:35.484Z,21.90
2018-11-20T14:15:42.984Z,23.43
2018-11-20T14:18:50.336Z,22.60
2018-11-20T14:21:57.007Z,23.43
2018-11-20T14:25:04.969Z,22.43
2018-11-20T14:28:14.220Z,24.90
2018-11-20T14:31:20.133Z,22.10
2018-11-20T14:34:27.823Z,25.10
2018-11-20T14:37:35.541Z,23.33
2018-11-20T14:40:43.033Z,24.60
2018-11-20T14:43:50.514Z,23.73
2018-11-20T14:46:58.299Z,23.50
2018-11-20T14:50:05.984Z,24.47
2018-11-20T14:53:13.700Z,24.40
2018-11-20T14:56:21.329Z,24.30
2018-11-20T14:59:47.828Z,24.33
2018-11-20T15:02:58.222Z,25.13
2018-11-20T15:06:24.594Z,25.73
2018-11-20T15:09:31.966Z,29.30
2018-11-20T15:12:39.388Z,24.50
2018-11-20T15:15:46.350Z,25.60
2018-11-20T15:18:53.084Z,24.80
2018-11-20T15:21:59.827Z,25.10
2018-11-20T15:24:56.266Z,28.70
2018-11-20T15:28:03.729Z,32.50
2018-11-20T15:31:12.121Z,33.90
2018-11-20T15:34:19.427Z,34.83
2018-11-20T15:37:26.991Z,33.30
2018-11-20T15:40:34.328Z,39.10
2018-11-20T15:43:41.857Z,29.57
2018-11-20T15:46:49.218Z,31.47
2018-11-20T15:49:56.675Z,28.20
2018-11-20T15:53:04.005Z,29.00
2018-11-20T15:56:11.385Z,28.37
2018-11-20T15:59:18.891Z,27.60
2018-11-20T16:02:26.279Z,29.80
2018-11-20T16:05:33.684Z,29.57
2018-11-20T16:08:31.500Z,26.07
2018-11-20T16:11:39.012Z,29.37
2018-11-20T16:14:46.572Z,33.47
2018-11-20T16:17:54.036Z,62.73
2018-11-20T16:21:01.337Z,48.13
2018-11-20T16:24:08.817Z,44.57
2018-11-20T16:27:16.314Z,40.35
2018-11-20T16:30:24.200Z,47.45
2018-11-20T16:33:31.779Z,56.20
2018-11-20T16:36:39.162Z,70.65
2018-11-20T16:39:46.568Z,65.35
2018-11-20T16:42:53.772Z,54.50
2018-11-20T16:46:02.881Z,49.60
2018-11-20T16:49:08.830Z,53.68
2018-11-20T16:52:16.373Z,52.00
2018-11-20T16:55:23.824Z,51.42
2018-11-20T16:58:26.463Z,52.20
2018-11-20T17:01:33.901Z,48.40
2018-11-20T17:04:44.375Z,42.20
2018-11-20T17:07:56.150Z,39.05
2018-11-20T17:10:59.479Z,48.28
2018-11-20T17:14:06.918Z,40.88
2018-11-20T17:17:14.432Z,33.67
2018-11-20T17:20:21.873Z,36.08
2018-11-20T17:23:29.309Z,34.60
2018-11-20T17:26:36.874Z,34.43
2018-11-20T17:29:44.436Z,34.50
2018-11-20T17:33:10.749Z,31.20
2018-11-20T17:36:18.125Z,25.85
2018-11-20T17:39:27.639Z,25.77
2018-11-20T17:42:34.283Z,23.18
2018-11-20T17:45:41.907Z,29.15
2018-11-20T17:48:49.363Z,27.22
2018-11-20T17:51:56.823Z,29.92
2018-11-20T17:55:03.002Z,35.33
2018-11-20T17:58:09.921Z,45.75
2018-11-20T18:01:17.481Z,47.25
2018-11-20T18:04:15.846Z,56.85
2018-11-20T18:07:22.606Z,52.40
2018-11-20T18:10:29.326Z,47.10
2018-11-20T18:13:36.728Z,49.73
2018-11-20T18:16:44.451Z,46.20
2018-11-20T18:19:51.776Z,47.23
2018-11-20T18:22:59.290Z,43.52
2018-11-20T18:26:06.654Z,38.58
2018-11-20T18:29:14.140Z,42.58
2018-11-20T18:32:21.719Z,41.60
2018-11-20T18:35:29.173Z,41.68
2018-11-20T18:38:36.377Z,44.23
2018-11-20T18:44:38.700Z,41.70
2018-11-20T18:47:38.764Z,43.78
2018-11-20T18:50:39.265Z,44.60
2018-11-20T18:53:45.420Z,31.93
2018-11-20T19:05:53.337Z,35.98
2018-11-20T19:08:53.857Z,34.23
2018-11-20T19:11:53.972Z,37.10
2018-11-20T19:14:55.689Z,38.35
2018-11-20T19:18:02.412Z,36.20
2018-11-20T19:21:09.777Z,35.15
2018-11-20T19:24:17.389Z,37.80
2018-11-20T19:27:24.953Z,38.63
2018-11-20T19:30:32.590Z,42.40
2018-11-20T19:37:00.784Z,39.10
2018-11-20T19:40:08.436Z,37.00
2018-11-20T19:43:15.626Z,31.02
2018-11-20T19:46:23.180Z,30.43
2018-11-20T19:49:30.555Z,31.12
2018-11-20T19:52:37.315Z,32.23
2018-11-20T19:55:43.979Z,30.97
2018-11-20T19:58:50.759Z,32.15
2018-11-20T20:02:00.442Z,33.55
2018-11-20T20:05:05.138Z,36.20
2018-11-20T20:08:12.404Z,40.40
2018-11-20T20:11:19.233Z,37.53
2018-11-20T20:14:26.093Z,29.77
2018-11-20T20:17:32.784Z,28.87
2018-11-20T20:20:40.311Z,31.57
2018-11-20T20:23:37.841Z,35.08
2018-11-20T20:26:45.452Z,30.32
2018-11-20T20:29:53.114Z,33.02
2018-11-20T20:33:00.551Z,32.25
2018-11-20T20:36:07.982Z,33.45
2018-11-20T20:39:15.362Z,34.65
2018-11-20T20:42:16.680Z,42.33
2018-11-20T20:45:24.325Z,29.75
2018-11-20T20:48:35.791Z,39.40
2018-11-20T20:51:39.721Z,36.70
2018-11-20T20:54:47.126Z,56.33
2018-11-20T20:57:54.623Z,54.58
2018-11-20T21:01:02.122Z,41.68
2018-11-20T21:04:09.540Z,40.17
2018-11-20T21:07:17.010Z,34.05
2018-11-20T21:10:24.448Z,33.30
2018-11-20T21:13:31.787Z,31.30
2018-11-20T21:16:39.163Z,29.45
2018-11-20T21:19:46.964Z,30.35
2018-11-20T21:22:56.733Z,30.05
2018-11-20T21:26:04.139Z,30.05
2018-11-20T21:29:12.859Z,32.20
2018-11-20T21:32:19.741Z,32.93
2018-11-20T21:35:27.002Z,29.90
2018-11-20T21:38:34.424Z,28.92
2018-11-20T21:41:43.484Z,26.93
2018-11-20T21:44:43.884Z,24.40
2018-11-20T21:47:51.372Z,24.95
2018-11-20T21:50:58.728Z,24.50
2018-11-20T21:54:06.080Z,25.48
2018-11-20T21:57:13.416Z,25.72
2018-11-20T22:00:24.062Z,24.82
2018-11-20T22:03:31.563Z,26.27
2018-11-20T22:06:38.975Z,26.82
2018-11-20T22:09:46.424Z,27.25
2018-11-20T22:12:53.867Z,28.32
2018-11-20T22:16:01.270Z,27.42
2018-11-20T22:19:08.527Z,27.75
2018-11-20T22:22:15.967Z,24.80
2018-11-20T22:25:23.412Z,25.88
2018-11-20T22:28:30.970Z,26.27
2018-11-20T22:31:38.593Z,28.85
2018-11-20T22:34:46.068Z,29.63
2018-11-20T22:37:41.302Z,29.90
2018-11-20T22:40:48.771Z,29.92
2018-11-20T22:43:56.158Z,26.77
2018-11-20T22:47:03.640Z,24.25
2018-11-20T22:50:11.139Z,24.85
2018-11-20T22:53:18.528Z,27.45
2018-11-20T22:56:25.796Z,27.35
2018-11-20T22:59:33.082Z,25.40
2018-11-20T23:02:40.622Z,25.90
2018-11-20T23:05:47.036Z,25.80
2018-11-20T23:08:35.414Z,26.50
2018-11-20T23:11:24.274Z,27.15
2018-11-20T23:14:13.008Z,25.72
2018-11-20T23:17:01.840Z,24.70
2018-11-20T23:19:50.406Z,22.45
2018-11-20T23:22:39.317Z,25.52
2018-11-20T23:25:28.470Z,23.07
2018-11-20T23:28:17.118Z,22.10
2018-11-20T23:31:05.713Z,22.93
2018-11-20T23:33:54.313Z,22.25
2018-11-20T23:36:43.315Z,22.87
2018-11-20T23:39:32.126Z,23.80
2018-11-20T23:42:23.990Z,22.58
2018-11-20T23:45:11.237Z,20.02
2018-11-20T23:48:00.164Z,21.65
2018-11-20T23:50:48.633Z,21.00
2018-11-20T23:53:37.753Z,21.20
2018-11-20T23:56:26.639Z,20.57
2018-11-20T23:59:15.795Z,22.22
